Time;durP1;ratioP1;P1;durP2;ratioP2;P2;SDS_P1;SDS_P2;PMS_P1;PMS_P2;Temp;Humidity;BMP_temperature;BMP_pressure;BME280_temperature;BME280_humidity;BME280_pressure;Samples;Min_cycle;Max_cycle;Signal;HPM_P1;HPM_P2
2022/06/10 00:00:15;;;;;;;;;;;;;;;33.34;29.49;97985.13;5046721;28;20308;-78
2022/06/10 00:02:43;;;;;;;;;;;;;;;33.61;28.71;97985.97;5042079;28;19920;-78
2022/06/10 00:05:17;;;;;;;;;;;;;;;33.81;28.60;97991.59;5039153;28;19920;-78
2022/06/10 00:07:44;;;;;;;;;;;;;;;33.59;29.06;97994.22;5039783;28;19966;-78
2022/06/10 00:10:11;;;;;;;;;;;;;;;33.67;28.98;97995.34;5040516;28;21585;-78
2022/06/10 00:12:37;;;;;;;;;;;;;;;33.58;29.21;97996.31;5041960;28;20296;-78
2022/06/10 00:15:04;;;;;;;;;;;;;;;33.48;29.28;97996.91;5042271;28;19921;-78
2022/06/10 00:17:30;;;;;;;;;;;;;;;33.19;29.90;97995.81;5028107;28;19935;-78
2022/06/10 00:19:56;;;;;;;;;;;;;;;33.26;29.87;98001.06;5045776;28;19921;-78
2022/06/10 00:22:22;;;;;;;;;;;;;;;33.17;29.53;97994.75;5041919;28;20023;-78
2022/06/10 00:24:51;;;;;;;;;;;;;;;32.97;30.07;97998.34;5041896;28;19916;-78
2022/06/10 00:27:18;;;;;;;;;;;;;;;33.18;30.02;97999.16;5042198;28;19916;-78
2022/06/10 00:29:44;;;;;;;;;;;;;;;32.93;30.17;98005.53;5042023;28;19913;-78
2022/06/10 00:32:10;;;;;;;;;;;;;;;33.07;30.04;97999.03;5042023;28;19931;-78
2022/06/10 00:34:36;;;;;;;;;;;;;;;33.09;29.85;98002.16;5046790;28;20011;-78
2022/06/10 00:37:03;;;;;;;;;;;;;;;33.30;29.42;98006.56;5036494;28;19963;-78
2022/06/10 00:39:29;;;;;;;;;;;;;;;33.54;29.10;98012.03;5045435;28;20305;-80
2022/06/10 00:41:55;;;;;;;;;;;;;;;33.76;28.63;98004.50;5037791;28;19933;-78
2022/06/10 00:44:36;;;;;;;;;;;;;;;33.69;28.65;98012.72;5041873;28;19967;-78
2022/06/10 00:47:13;;;;;;;;;;;;;;;33.65;28.82;98012.16;5043824;28;19920;-78
2022/06/10 00:49:40;;;;;;;;;;;;;;;33.36;29.54;98007.41;5044078;28;19963;-79
2022/06/10 00:52:15;;;;;;;;;;;;;;;33.59;29.13;98012.09;5037730;28;19917;-78
2022/06/10 00:54:44;;;;;;;;;;;;;;;33.94;28.58;98015.56;5039984;28;20316;-78
2022/06/10 00:57:16;;;;;;;;;;;;;;;33.95;28.42;98017.13;5039049;28;19928;-78
2022/06/10 00:59:48;;;;;;;;;;;;;;;33.71;28.49;98027.22;5047650;28;19936;-78
2022/06/10 01:02:15;;;;;;;;;;;;;;;33.88;27.98;98022.50;5044914;28;20272;-78
2022/06/10 01:04:42;;;;;;;;;;;;;;;33.55;28.34;98020.06;5049173;28;19978;-78
2022/06/10 01:07:09;;;;;;;;;;;;;;;33.03;29.12;98016.28;5044325;28;19916;-78
2022/06/10 01:09:36;;;;;;;;;;;;;;;32.94;29.48;98018.47;5042067;28;19935;-78
2022/06/10 01:12:11;;;;;;;;;;;;;;;33.14;29.31;98016.44;5041673;28;19939;-78
2022/06/10 01:14:43;;;;;;;;;;;;;;;33.37;28.91;98015.41;5044448;28;19917;-78
2022/06/10 01:17:18;;;;;;;;;;;;;;;33.65;27.96;98015.00;5041267;28;19925;-78
2022/06/10 01:19:44;;;;;;;;;;;;;;;33.74;27.89;98007.09;5041170;28;19917;-78
2022/06/10 01:22:13;;;;;;;;;;;;;;;33.69;28.45;98012.72;5046067;28;20006;-78
2022/06/10 01:24:42;;;;;;;;;;;;;;;33.95;27.58;98008.59;5054030;28;19931;-78
2022/06/10 01:30:18;;;;;;;;;;;;;;;34.53;26.76;98015.09;5040617;28;19972;-77
2022/06/10 01:32:49;;;;;;;;;;;;;;;34.66;26.84;98015.41;5048658;28;20017;-77
2022/06/10 01:35:23;;;;;;;;;;;;;;;34.65;26.58;98016.72;5045034;28;19920;-78
2022/06/10 01:37:57;;;;;;;;;;;;;;;34.64;26.79;98021.63;5026629;28;19920;-78
2022/06/10 01:40:43;;;;;;;;;;;;;;;34.65;26.91;98023.22;5043511;28;20407;-78
2022/06/10 01:43:14;;;;;;;;;;;;;;;34.65;26.70;98026.06;5035402;28;19937;-78
2022/06/10 01:45:47;;;;;;;;;;;;;;;34.32;27.09;98031.47;5043841;28;19931;-78
2022/06/10 01:48:25;;;;;;;;;;;;;;;34.00;27.46;98035.56;5042448;28;19921;-78
2022/06/10 01:51:09;;;;;;;;;;;;;;;33.98;27.61;98032.44;5041841;28;20416;-78
2022/06/10 01:53:39;;;;;;;;;;;;;;;34.09;27.61;98035.44;5042543;28;20385;-78
2022/06/10 01:56:09;;;;;;;;;;;;;;;34.03;27.52;98040.28;5043794;28;19964;-78
2022/06/10 01:58:35;;;;;;;;;;;;;;;34.25;27.03;98046.19;5041067;28;20031;-78
2022/06/10 02:01:05;;;;;;;;;;;;;;;34.22;27.35;98057.81;5044499;28;19917;-78
2022/06/10 02:03:42;;;;;;;;;;;;;;;34.22;27.02;98060.66;5042020;28;20384;-78
2022/06/10 02:06:14;;;;;;;;;;;;;;;34.30;27.17;98064.63;5038983;28;19916;-78
2022/06/10 02:08:43;;;;;;;;;;;;;;;34.49;27.19;98063.00;5041826;28;19921;-78
2022/06/10 02:11:12;;;;;;;;;;;;;;;34.60;26.83;98061.03;5042066;28;20062;-78
2022/06/10 02:13:42;;;;;;;;;;;;;;;34.51;26.88;98071.81;5040555;28;19968;-78
2022/06/10 02:16:11;;;;;;;;;;;;;;;34.27;26.91;98063.56;5038675;28;19916;-78
2022/06/10 02:18:41;;;;;;;;;;;;;;;34.00;27.64;98064.06;5024521;28;20299;-78
2022/06/10 02:21:16;;;;;;;;;;;;;;;33.82;27.90;98068.00;5039867;28;19984;-78
2022/06/10 02:23:45;;;;;;;;;;;;;;;33.73;28.04;98067.38;5039504;28;19921;-78
2022/06/10 02:26:12;;;;;;;;;;;;;;;33.42;28.57;98071.66;5037572;28;19931;-78
2022/06/10 02:28:44;;;;;;;;;;;;;;;33.39;28.29;98072.66;5041027;28;19920;-78
2022/06/10 02:31:16;;;;;;;;;;;;;;;33.20;28.65;98067.75;5038933;28;20671;-78
2022/06/10 02:33:42;;;;;;;;;;;;;;;32.95;28.95;98063.50;5040370;28;20322;-78
2022/06/10 02:36:12;;;;;;;;;;;;;;;32.96;29.17;98061.41;5043302;28;19940;-78
2022/06/10 02:38:50;;;;;;;;;;;;;;;33.24;28.68;98071.94;5040054;28;19917;-78
2022/06/10 02:41:25;;;;;;;;;;;;;;;33.58;28.19;98064.66;5046259;28;19925;-78
2022/06/10 02:43:56;;;;;;;;;;;;;;;33.90;27.77;98079.75;5024839;28;19924;-78
2022/06/10 02:46:38;;;;;;;;;;;;;;;34.12;27.02;98080.03;5044174;28;19952;-78
2022/06/10 02:49:10;;;;;;;;;;;;;;;34.21;27.19;98082.69;5037017;28;20010;-78
2022/06/10 02:51:36;;;;;;;;;;;;;;;34.00;27.18;98086.88;5037672;28;19924;-78
2022/06/10 02:54:04;;;;;;;;;;;;;;;33.54;27.96;98086.84;5042801;28;19947;-78
2022/06/10 02:56:30;;;;;;;;;;;;;;;33.32;28.30;98100.78;5039751;28;20703;-78
2022/06/10 03:01:49;;;;;;;;;;;;;;;33.31;28.15;98099.97;5043817;28;19937;-78
2022/06/10 03:04:18;;;;;;;;;;;;;;;33.12;28.22;98095.81;5037201;28;19977;-78
2022/06/10 03:07:02;;;;;;;;;;;;;;;32.91;28.69;98105.56;5040451;28;19923;-78
2022/06/10 03:09:28;;;;;;;;;;;;;;;32.83;29.14;98109.31;5038696;28;19917;-78
2022/06/10 03:12:12;;;;;;;;;;;;;;;32.82;29.14;98108.53;5040201;28;19928;-78
2022/06/10 03:14:41;;;;;;;;;;;;;;;32.85;29.20;98106.78;5044966;28;19924;-78
2022/06/10 03:17:20;;;;;;;;;;;;;;;32.58;29.68;98113.59;5038153;28;19939;-78
2022/06/10 03:19:49;;;;;;;;;;;;;;;32.39;29.99;98120.72;5040061;28;19920;-78
2022/06/10 03:22:32;;;;;;;;;;;;;;;32.38;29.82;98119.16;5038870;28;19927;-78
2022/06/10 03:25:07;;;;;;;;;;;;;;;32.75;29.53;98126.00;5035719;28;19917;-78
2022/06/10 03:27:33;;;;;;;;;;;;;;;32.94;29.25;98132.25;5043686;28;19986;-78
2022/06/10 03:30:11;;;;;;;;;;;;;;;32.95;29.10;98136.69;5040485;28;19920;-78
2022/06/10 03:32:53;;;;;;;;;;;;;;;33.29;28.88;98130.22;5039460;28;20404;-78
2022/06/10 03:35:32;;;;;;;;;;;;;;;33.71;28.27;98135.47;5039379;28;19917;-78
2022/06/10 03:38:00;;;;;;;;;;;;;;;33.78;27.93;98137.88;5034890;28;20019;-80
2022/06/10 03:40:28;;;;;;;;;;;;;;;33.87;28.17;98149.13;5037529;28;19928;-80
2022/06/10 03:42:55;;;;;;;;;;;;;;;34.01;27.84;98151.09;5022773;28;19917;-80
2022/06/10 03:45:27;;;;;;;;;;;;;;;33.59;28.45;98148.78;5038517;28;19967;-80
2022/06/10 03:47:54;;;;;;;;;;;;;;;33.73;28.51;98144.28;5039696;28;19921;-80
2022/06/10 03:50:23;;;;;;;;;;;;;;;33.87;28.83;98149.13;5043726;28;19963;-81
2022/06/10 03:52:49;;;;;;;;;;;;;;;33.93;28.15;98156.47;5036767;28;20372;-80
2022/06/10 03:55:17;;;;;;;;;;;;;;;34.21;28.70;98159.66;5035992;28;19920;-81
2022/06/10 03:57:44;;;;;;;;;;;;;;;34.71;27.76;98160.94;5041135;28;20307;-81
2022/06/10 04:00:13;;;;;;;;;;;;;;;34.85;27.01;98164.97;5037788;28;20407;-78
2022/06/10 04:02:39;;;;;;;;;;;;;;;34.79;27.44;98161.28;5040042;28;19925;-78
2022/06/10 04:05:05;;;;;;;;;;;;;;;34.96;27.15;98167.13;5033776;28;19913;-78
2022/06/10 04:07:31;;;;;;;;;;;;;;;35.00;26.62;98159.09;5035786;28;19931;-78
2022/06/10 04:09:57;;;;;;;;;;;;;;;34.58;27.24;98163.44;5035847;28;19925;-78
2022/06/10 04:12:25;;;;;;;;;;;;;;;34.52;27.23;98168.28;5039373;28;19952;-78
2022/06/10 04:14:51;;;;;;;;;;;;;;;34.39;27.64;98167.88;5039020;28;19924;-79
2022/06/10 04:17:17;;;;;;;;;;;;;;;34.51;27.15;98163.84;5043465;28;19918;-79
2022/06/10 04:19:43;;;;;;;;;;;;;;;34.38;27.87;98174.09;5040497;28;19974;-78
2022/06/10 04:22:09;;;;;;;;;;;;;;;34.69;27.64;98177.78;5039942;28;19920;-79
2022/06/10 04:24:36;;;;;;;;;;;;;;;34.99;27.52;98184.00;5042025;28;21706;-78
2022/06/10 04:27:02;;;;;;;;;;;;;;;34.94;26.70;98186.84;5043380;28;19916;-81
2022/06/10 04:29:28;;;;;;;;;;;;;;;34.36;27.50;98182.34;5040825;28;19916;-81
2022/06/10 04:31:55;;;;;;;;;;;;;;;33.61;28.04;98191.00;5041806;28;19956;-81
2022/06/10 04:34:21;;;;;;;;;;;;;;;33.47;28.83;98197.50;5040743;28;20380;-79
2022/06/10 04:36:47;;;;;;;;;;;;;;;33.46;28.56;98202.41;5041136;28;19917;-79
2022/06/10 04:39:13;;;;;;;;;;;;;;;32.78;29.77;98198.97;5025937;28;19921;-77
2022/06/10 04:41:39;;;;;;;;;;;;;;;33.09;29.17;98207.81;5038904;28;19925;-81
2022/06/10 04:44:05;;;;;;;;;;;;;;;33.00;29.45;98205.03;5047208;28;19921;-80
2022/06/10 04:46:34;;;;;;;;;;;;;;;33.29;29.16;98207.84;5042384;28;20011;-80
2022/06/10 04:49:00;;;;;;;;;;;;;;;33.46;28.82;98210.16;5039441;28;19917;-80
2022/06/10 04:51:26;;;;;;;;;;;;;;;33.33;28.83;98207.66;5041467;28;20006;-80
2022/06/10 04:53:52;;;;;;;;;;;;;;;32.99;29.55;98214.06;5045569;28;19921;-79
2022/06/10 04:56:18;;;;;;;;;;;;;;;33.19;28.96;98217.78;5039097;28;20385;-79
2022/06/10 04:58:44;;;;;;;;;;;;;;;33.25;28.96;98221.53;5042280;28;19971;-78
2022/06/10 05:01:11;;;;;;;;;;;;;;;33.24;29.11;98219.16;5043608;28;19925;-79
2022/06/10 05:03:37;;;;;;;;;;;;;;;32.79;29.67;98220.47;5040443;28;19982;-79
2022/06/10 05:06:03;;;;;;;;;;;;;;;32.61;29.65;98226.31;5043831;28;20319;-81
2022/06/10 05:08:29;;;;;;;;;;;;;;;32.78;29.71;98227.41;5044434;28;19917;-81
2022/06/10 05:10:58;;;;;;;;;;;;;;;33.07;29.64;98230.25;5027028;28;19921;-80
2022/06/10 05:13:24;;;;;;;;;;;;;;;33.28;29.30;98246.13;5040144;28;19926;-80
2022/06/10 05:15:50;;;;;;;;;;;;;;;33.04;28.81;98241.84;5040861;28;22724;-80
2022/06/10 05:18:18;;;;;;;;;;;;;;;32.94;29.46;98240.34;5043067;28;19916;-78
2022/06/10 05:20:44;;;;;;;;;;;;;;;33.09;29.34;98247.66;5040910;28;19944;-77
2022/06/10 05:23:12;;;;;;;;;;;;;;;33.37;28.80;98250.94;5040518;28;22230;-79
2022/06/10 05:25:38;;;;;;;;;;;;;;;33.29;28.76;98261.16;5041823;28;20312;-77
2022/06/10 05:28:04;;;;;;;;;;;;;;;33.76;28.40;98265.78;5040365;28;19987;-78
2022/06/10 05:30:32;;;;;;;;;;;;;;;33.69;27.88;98260.50;5043847;28;19912;-77
2022/06/10 05:32:58;;;;;;;;;;;;;;;33.68;27.79;98259.72;5041408;28;20380;-77
2022/06/10 05:35:24;;;;;;;;;;;;;;;33.80;28.07;98261.44;5042623;28;19916;-77
2022/06/10 05:37:51;;;;;;;;;;;;;;;33.83;27.71;98265.38;5039938;28;20288;-77
2022/06/10 05:40:17;;;;;;;;;;;;;;;34.05;27.66;98257.16;5041343;28;19927;-77
2022/06/10 05:42:43;;;;;;;;;;;;;;;33.82;27.66;98273.13;5043878;28;19923;-77
2022/06/10 05:45:11;;;;;;;;;;;;;;;33.71;27.76;98275.03;5040272;28;19917;-77
2022/06/10 05:47:37;;;;;;;;;;;;;;;32.91;29.08;98273.41;5039882;28;19962;-77
2022/06/10 05:50:07;;;;;;;;;;;;;;;32.90;29.50;98273.91;5041125;28;19924;-79
2022/06/10 05:52:33;;;;;;;;;;;;;;;33.24;29.12;98281.75;5040731;28;20311;-79
2022/06/10 05:55:03;;;;;;;;;;;;;;;32.81;29.19;98288.22;5043316;28;19959;-79
2022/06/10 05:57:30;;;;;;;;;;;;;;;32.62;30.18;98279.88;5046252;28;19923;-79
2022/06/10 05:59:57;;;;;;;;;;;;;;;32.85;29.39;98286.75;5041942;28;19970;-80
2022/06/10 06:02:23;;;;;;;;;;;;;;;33.37;29.62;98285.88;5044779;28;19991;-80
2022/06/10 06:04:50;;;;;;;;;;;;;;;33.14;29.05;98283.94;5041493;28;19920;-80
2022/06/10 06:07:21;;;;;;;;;;;;;;;32.85;29.67;98281.06;5041517;28;19923;-80
2022/06/10 06:09:47;;;;;;;;;;;;;;;32.67;29.79;98278.41;5040905;28;19917;-80
2022/06/10 06:12:12;;;;;;;;;;;;;;;33.01;29.49;98282.63;5040661;28;19979;-77
2022/06/10 06:14:39;;;;;;;;;;;;;;;33.33;28.89;98288.13;5040295;28;19924;-77
2022/06/10 06:17:05;;;;;;;;;;;;;;;33.64;29.00;98287.63;5043880;28;19931;-77
2022/06/10 06:19:32;;;;;;;;;;;;;;;33.70;28.61;98293.41;5043096;28;19924;-78
2022/06/10 06:21:58;;;;;;;;;;;;;;;33.92;28.35;98293.72;5040890;28;19920;-78
2022/06/10 06:24:24;;;;;;;;;;;;;;;33.88;28.32;98296.00;5038159;28;19967;-77
2022/06/10 06:26:51;;;;;;;;;;;;;;;33.40;28.92;98304.81;5039123;28;19924;-77
2022/06/10 06:29:18;;;;;;;;;;;;;;;32.92;29.18;98306.28;5041481;28;19932;-77
2022/06/10 06:31:44;;;;;;;;;;;;;;;32.97;29.58;98301.97;5042054;28;19913;-78
2022/06/10 06:34:10;;;;;;;;;;;;;;;33.34;29.03;98303.16;5043119;28;19924;-80
2022/06/10 06:36:38;;;;;;;;;;;;;;;33.74;29.17;98311.06;5042262;28;19920;-80
2022/06/10 06:39:05;;;;;;;;;;;;;;;33.47;28.57;98311.41;5028573;28;20403;-80
2022/06/10 06:41:31;;;;;;;;;;;;;;;32.99;29.52;98308.75;5042478;28;19991;-80
2022/06/10 06:43:57;;;;;;;;;;;;;;;33.19;28.99;98317.41;5042257;28;20279;-80
2022/06/10 06:46:23;;;;;;;;;;;;;;;33.41;28.98;98319.84;5039975;28;19921;-80
2022/06/10 06:48:49;;;;;;;;;;;;;;;33.40;29.26;98326.81;5042153;28;19928;-80
2022/06/10 06:51:15;;;;;;;;;;;;;;;33.39;29.49;98323.19;5041764;28;19921;-80
2022/06/10 06:53:41;;;;;;;;;;;;;;;33.02;29.68;98324.88;5038207;28;20020;-80
2022/06/10 06:56:07;;;;;;;;;;;;;;;33.03;30.03;98317.09;5041132;28;20343;-80
2022/06/10 06:58:33;;;;;;;;;;;;;;;32.58;30.40;98324.00;5037197;28;20010;-80
2022/06/10 07:01:00;;;;;;;;;;;;;;;32.50;30.49;98325.63;5041214;28;19912;-80
2022/06/10 07:03:26;;;;;;;;;;;;;;;32.29;30.65;98329.53;5038474;28;19924;-80
2022/06/10 07:05:52;;;;;;;;;;;;;;;32.14;31.03;98325.88;5040828;28;19928;-79
2022/06/10 07:08:19;;;;;;;;;;;;;;;32.38;30.70;98329.47;5041235;28;19994;-79
2022/06/10 07:10:45;;;;;;;;;;;;;;;32.36;30.87;98329.97;5039314;28;20329;-77
2022/06/10 07:13:12;;;;;;;;;;;;;;;32.83;30.01;98331.19;5041762;28;19916;-77
2022/06/10 07:15:39;;;;;;;;;;;;;;;33.21;29.82;98331.91;5042324;28;19912;-77
2022/06/10 07:18:06;;;;;;;;;;;;;;;33.23;29.30;98337.94;5050336;28;19925;-77
2022/06/10 07:20:33;;;;;;;;;;;;;;;32.75;30.02;98334.41;5045533;28;19913;-76
2022/06/10 07:23:00;;;;;;;;;;;;;;;32.64;30.79;98341.94;5042508;28;19917;-77
2022/06/10 07:25:27;;;;;;;;;;;;;;;33.39;29.64;98340.28;5042454;28;19917;-77
2022/06/10 07:27:55;;;;;;;;;;;;;;;33.30;29.50;98345.28;5044427;28;19920;-77
2022/06/10 07:30:23;;;;;;;;;;;;;;;33.13;29.77;98339.28;5039096;28;20011;-76
2022/06/10 07:32:49;;;;;;;;;;;;;;;33.08;29.99;98337.13;5039566;28;19913;-77
2022/06/10 07:35:17;;;;;;;;;;;;;;;32.46;31.05;98339.22;5039549;28;19917;-77
2022/06/10 07:37:43;;;;;;;;;;;;;;;32.82;30.83;98341.78;5042005;28;20384;-77
2022/06/10 07:41:56;;;;;;;;;;;;;;;32.94;30.76;98348.47;5028042;28;20008;-78
2022/06/10 07:42:55;;;;;;;;;;;;;;;33.25;30.58;98343.13;5043262;28;19917;-77
2022/06/10 07:45:21;;;;;;;;;;;;;;;33.51;29.36;98346.16;5041034;28;19921;-77
2022/06/10 07:47:47;;;;;;;;;;;;;;;33.52;29.64;98342.78;5039878;28;19924;-78
2022/06/10 07:50:13;;;;;;;;;;;;;;;33.38;30.35;98350.06;5043332;28;20003;-77
2022/06/10 07:52:39;;;;;;;;;;;;;;;33.42;29.87;98353.50;5044099;28;19917;-77
2022/06/10 07:55:05;;;;;;;;;;;;;;;33.42;30.08;98353.50;5044440;28;19912;-77
2022/06/10 07:57:31;;;;;;;;;;;;;;;33.43;29.61;98354.28;5040272;28;19967;-77
2022/06/10 07:59:57;;;;;;;;;;;;;;;33.20;29.98;98355.97;5044668;28;19921;-77
2022/06/10 08:02:24;;;;;;;;;;;;;;;33.25;29.91;98352.44;5046150;28;19920;-77
2022/06/10 08:04:50;;;;;;;;;;;;;;;32.82;30.67;98349.50;5041355;28;19917;-77
2022/06/10 08:07:16;;;;;;;;;;;;;;;32.80;30.65;98355.69;5045265;28;19942;-77
2022/06/10 08:09:43;;;;;;;;;;;;;;;33.30;29.71;98351.75;5041291;28;19912;-77
2022/06/10 08:12:09;;;;;;;;;;;;;;;33.31;29.74;98359.00;5047493;28;19947;-77
2022/06/10 08:14:35;;;;;;;;;;;;;;;33.19;29.97;98365.78;5045545;28;19924;-78
2022/06/10 08:17:04;;;;;;;;;;;;;;;33.42;29.53;98364.13;5048595;28;19916;-77
2022/06/10 08:19:32;;;;;;;;;;;;;;;32.76;30.56;98369.34;5045337;28;19970;-77
2022/06/10 08:24:43;;;;;;;;;;;;;;;33.03;30.25;98374.00;5045035;28;19923;-77
2022/06/10 08:27:09;;;;;;;;;;;;;;;32.72;31.19;98375.19;5045116;28;19917;-77
2022/06/10 08:29:35;;;;;;;;;;;;;;;32.80;30.74;98372.75;5047088;28;19917;-76
2022/06/10 08:32:01;;;;;;;;;;;;;;;33.00;30.48;98381.44;5048822;28;19956;-77
2022/06/10 08:34:27;;;;;;;;;;;;;;;32.52;31.33;98385.63;5042603;28;20304;-77
2022/06/10 08:36:53;;;;;;;;;;;;;;;32.71;31.13;98385.00;5045337;28;19924;-77
2022/06/10 08:39:19;;;;;;;;;;;;;;;32.55;31.54;98387.50;5029342;28;20360;-77
2022/06/10 08:41:48;;;;;;;;;;;;;;;33.19;30.63;98387.75;5045247;28;19928;-77
2022/06/10 08:44:24;;;;;;;;;;;;;;;32.69;31.02;98384.72;5042845;28;19916;-77
2022/06/10 08:46:50;;;;;;;;;;;;;;;32.74;31.29;98388.94;5046772;28;19917;-77
2022/06/10 08:49:35;;;;;;;;;;;;;;;32.05;32.56;98394.88;5042553;28;19923;-77
2022/06/10 08:52:14;;;;;;;;;;;;;;;32.51;32.09;98389.75;5042212;28;19917;-77
2022/06/10 08:54:47;;;;;;;;;;;;;;;32.23;31.62;98391.16;5039929;28;20303;-77
2022/06/10 08:57:25;;;;;;;;;;;;;;;32.15;31.75;98402.09;5042378;28;20350;-77
2022/06/10 08:59:53;;;;;;;;;;;;;;;32.30;31.90;98408.63;5042131;28;19917;-77
2022/06/10 09:02:33;;;;;;;;;;;;;;;32.83;31.03;98403.09;5023824;28;20343;-77
2022/06/10 09:05:17;;;;;;;;;;;;;;;32.68;31.57;98407.94;5047027;28;19962;-77
2022/06/10 09:07:49;;;;;;;;;;;;;;;32.32;31.58;98413.84;5039230;28;19944;-77
2022/06/10 09:10:23;;;;;;;;;;;;;;;32.18;32.05;98423.88;5044902;28;19967;-77
2022/06/10 09:12:58;;;;;;;;;;;;;;;32.31;32.11;98427.25;5040866;28;20429;-77
2022/06/10 09:15:24;;;;;;;;;;;;;;;31.79;32.72;98424.94;5042096;28;19999;-77
2022/06/10 09:17:53;;;;;;;;;;;;;;;31.41;33.58;98422.69;5045986;28;20020;-77
2022/06/10 09:20:33;;;;;;;;;;;;;;;32.05;32.80;98429.78;5044812;28;19913;-77
2022/06/10 09:22:59;;;;;;;;;;;;;;;32.31;32.40;98429.31;5043559;28;19944;-77
2022/06/10 09:25:25;;;;;;;;;;;;;;;32.85;31.31;98431.03;5031405;28;19916;-77
2022/06/10 09:27:56;;;;;;;;;;;;;;;32.80;31.31;98428.84;5039562;28;22422;-77
2022/06/10 09:30:38;;;;;;;;;;;;;;;33.01;31.13;98445.63;5044343;28;20457;-77
2022/06/10 09:33:17;;;;;;;;;;;;;;;33.25;30.91;98443.53;5043917;28;19928;-77
2022/06/10 09:35:43;;;;;;;;;;;;;;;33.30;30.69;98444.91;5042095;28;20037;-77
2022/06/10 09:38:27;;;;;;;;;;;;;;;33.50;30.37;98439.31;5043380;28;19952;-77
2022/06/10 09:41:04;;;;;;;;;;;;;;;33.61;30.01;98444.47;5041245;28;19927;-77
2022/06/10 09:43:45;;;;;;;;;;;;;;;33.67;29.79;98440.44;5043860;28;19956;-78
2022/06/10 09:46:30;;;;;;;;;;;;;;;33.62;30.14;98446.03;5040672;28;20427;-77
2022/06/10 09:49:14;;;;;;;;;;;;;;;33.19;30.83;98450.38;5040142;28;19924;-77
2022/06/10 09:51:59;;;;;;;;;;;;;;;33.65;29.91;98457.25;5041674;28;19923;-77
2022/06/10 09:54:28;;;;;;;;;;;;;;;33.18;30.69;98451.66;5041410;28;19955;-80
2022/06/10 09:56:53;;;;;;;;;;;;;;;33.35;30.71;98447.09;5041579;28;19927;-80
2022/06/10 09:59:22;;;;;;;;;;;;;;;33.43;30.50;98448.25;5035344;28;20288;-80
2022/06/10 10:02:07;;;;;;;;;;;;;;;33.89;30.01;98449.34;5041776;28;20407;-80
2022/06/10 10:04:45;;;;;;;;;;;;;;;33.64;29.79;98447.13;5039522;28;19967;-80
2022/06/10 10:07:24;;;;;;;;;;;;;;;33.90;29.77;98456.63;5040256;28;19917;-80
2022/06/10 10:09:53;;;;;;;;;;;;;;;33.67;30.15;98462.44;5038231;28;20395;-80
2022/06/10 10:12:24;;;;;;;;;;;;;;;33.86;29.29;98455.28;5040953;28;19921;-80
2022/06/10 10:14:56;;;;;;;;;;;;;;;33.89;29.55;98451.41;5041946;28;20007;-77
2022/06/10 10:17:30;;;;;;;;;;;;;;;33.30;30.32;98459.91;5036928;28;19917;-77
2022/06/10 10:20:15;;;;;;;;;;;;;;;33.14;30.84;98466.06;5042748;28;20065;-77
2022/06/10 10:22:44;;;;;;;;;;;;;;;33.53;29.81;98461.16;5042329;28;20376;-78
2022/06/10 10:25:15;;;;;;;;;;;;;;;33.98;29.27;98468.44;5043411;28;19952;-77
2022/06/10 10:27:41;;;;;;;;;;;;;;;34.39;28.71;98461.59;5025495;28;20325;-78
2022/06/10 10:30:34;;;;;;;;;;;;;;;33.58;29.68;98465.38;5039668;28;19948;-78
2022/06/10 10:33:02;;;;;;;;;;;;;;;33.62;29.88;98463.13;5018546;28;20376;-78
2022/06/10 10:35:30;;;;;;;;;;;;;;;33.80;29.59;98466.56;5040592;28;19917;-78
2022/06/10 10:37:58;;;;;;;;;;;;;;;33.67;29.37;98462.44;5040259;28;19917;-78
2022/06/10 10:40:33;;;;;;;;;;;;;;;33.01;30.89;98467.56;5042123;28;19928;-78
2022/06/10 10:43:02;;;;;;;;;;;;;;;33.32;30.02;98474.47;5039262;28;20007;-78
2022/06/10 10:45:31;;;;;;;;;;;;;;;33.60;29.94;98471.38;5040719;28;20259;-78
2022/06/10 10:48:05;;;;;;;;;;;;;;;33.57;29.95;98476.00;5040185;28;20369;-77
2022/06/10 10:50:37;;;;;;;;;;;;;;;33.44;29.92;98479.06;5044278;28;20397;-77
2022/06/10 10:53:07;;;;;;;;;;;;;;;33.66;29.78;98478.72;5041532;28;20403;-78
2022/06/10 10:55:34;;;;;;;;;;;;;;;34.09;29.03;98471.47;5039670;28;20012;-77
2022/06/10 10:58:14;;;;;;;;;;;;;;;34.08;29.34;98476.38;5041799;28;19964;-78
2022/06/10 11:00:42;;;;;;;;;;;;;;;34.24;29.41;98480.00;5039159;28;19963;-78
2022/06/10 11:03:22;;;;;;;;;;;;;;;34.73;28.75;98475.06;5045820;28;19917;-78
2022/06/10 11:05:49;;;;;;;;;;;;;;;35.06;28.04;98476.78;5044269;28;19924;-78
2022/06/10 11:08:28;;;;;;;;;;;;;;;34.89;28.09;98481.50;5040140;28;19924;-78
2022/06/10 11:11:00;;;;;;;;;;;;;;;34.69;28.73;98479.41;5042324;28;19948;-78
2022/06/10 11:13:31;;;;;;;;;;;;;;;35.03;28.74;98484.28;5039667;28;19944;-78
2022/06/10 11:16:17;;;;;;;;;;;;;;;34.91;27.88;98487.47;5042907;28;19964;-77
2022/06/10 11:18:46;;;;;;;;;;;;;;;34.73;28.28;98479.97;5039750;28;20376;-78
2022/06/10 11:21:12;;;;;;;;;;;;;;;34.57;28.40;98478.47;5040543;28;20016;-78
2022/06/10 11:23:49;;;;;;;;;;;;;;;34.44;28.51;98486.56;5040655;28;19917;-78
2022/06/10 11:26:21;;;;;;;;;;;;;;;34.25;28.65;98482.34;5038580;28;20014;-78
2022/06/10 11:28:49;;;;;;;;;;;;;;;34.76;28.60;98481.84;5038069;28;19960;-78
2022/06/10 11:31:26;;;;;;;;;;;;;;;34.80;28.18;98493.06;5041685;28;19916;-78
2022/06/10 11:33:53;;;;;;;;;;;;;;;34.73;28.26;98475.06;5039775;28;19923;-78
2022/06/10 11:36:22;;;;;;;;;;;;;;;34.01;28.98;98473.91;5044370;28;20011;-78
2022/06/10 11:38:51;;;;;;;;;;;;;;;34.26;28.87;98477.44;5039489;28;19917;-78
2022/06/10 11:41:25;;;;;;;;;;;;;;;34.70;28.54;98470.34;5038782;28;19921;-78
2022/06/10 11:43:55;;;;;;;;;;;;;;;34.82;28.25;98474.16;5037516;28;19963;-78
2022/06/10 11:46:25;;;;;;;;;;;;;;;35.08;27.55;98477.09;5039812;28;19917;-78
2022/06/10 11:49:18;;;;;;;;;;;;;;;34.66;27.92;98481.19;5031386;28;20266;-78
2022/06/10 11:51:52;;;;;;;;;;;;;;;34.92;27.70;98486.97;5035816;28;20438;-78
2022/06/10 11:54:26;;;;;;;;;;;;;;;34.72;27.87;98478.41;5037737;28;19917;-78
2022/06/10 11:59:58;;;;;;;;;;;;;;;34.84;27.75;98479.34;5038455;28;19963;-78
2022/06/10 12:02:30;;;;;;;;;;;;;;;34.87;27.84;98484.06;5040160;28;19920;-78
2022/06/10 12:05:01;;;;;;;;;;;;;;;34.91;27.76;98476.06;5039101;28;19944;-78
2022/06/10 12:07:30;;;;;;;;;;;;;;;35.09;27.92;98481.50;5038548;28;20292;-78
2022/06/10 12:09:57;;;;;;;;;;;;;;;35.10;27.55;98480.25;5040220;28;19929;-79
2022/06/10 12:12:29;;;;;;;;;;;;;;;35.04;27.63;98476.50;5041286;28;19979;-79
2022/06/10 12:14:58;;;;;;;;;;;;;;;35.30;27.57;98480.19;5040246;28;19932;-78
2022/06/10 12:17:27;;;;;;;;;;;;;;;35.21;27.89;98474.66;5044582;28;19920;-79
2022/06/10 12:19:53;;;;;;;;;;;;;;;34.84;27.96;98483.00;5046089;28;19963;-78
2022/06/10 12:22:19;;;;;;;;;;;;;;;34.55;28.79;98483.88;5039720;28;20348;-78
2022/06/10 12:24:47;;;;;;;;;;;;;;;34.89;28.40;98478.63;5040398;28;20293;-79
2022/06/10 12:27:22;;;;;;;;;;;;;;;34.54;28.67;98482.31;5040291;28;19971;-79
2022/06/10 12:30:04;;;;;;;;;;;;;;;33.86;29.68;98476.00;5039617;28;20292;-78
2022/06/10 12:32:39;;;;;;;;;;;;;;;34.10;29.70;98480.81;5039038;28;19917;-78
2022/06/10 12:35:08;;;;;;;;;;;;;;;34.29;29.22;98473.59;5036618;28;20319;-79
2022/06/10 12:37:41;;;;;;;;;;;;;;;34.44;28.67;98482.91;5041283;28;19986;-79
2022/06/10 12:40:25;;;;;;;;;;;;;;;34.79;28.79;98474.34;5045553;28;19921;-79
2022/06/10 12:42:55;;;;;;;;;;;;;;;34.69;28.81;98473.69;5042048;28;19921;-79
2022/06/10 12:45:41;;;;;;;;;;;;;;;34.60;29.19;98476.69;5044985;28;19916;-79
2022/06/10 12:48:11;;;;;;;;;;;;;;;35.16;28.39;98475.38;5044940;28;19999;-80
2022/06/10 12:50:46;;;;;;;;;;;;;;;34.89;28.53;98479.44;5048836;28;19970;-80
2022/06/10 12:53:31;;;;;;;;;;;;;;;35.01;27.64;98469.69;5041254;28;19999;-80
2022/06/10 12:55:58;;;;;;;;;;;;;;;34.27;29.31;98473.31;5045692;28;20351;-80
2022/06/10 12:58:37;;;;;;;;;;;;;;;34.92;28.14;98475.56;5044380;28;19928;-80
2022/06/10 13:01:26;;;;;;;;;;;;;;;34.81;28.49;98483.97;5044706;28;19917;-80
2022/06/10 13:03:53;;;;;;;;;;;;;;;35.03;28.17;98483.53;5040214;28;19963;-81
2022/06/10 13:06:46;;;;;;;;;;;;;;;34.60;28.06;98474.63;5040253;28;19925;-82
2022/06/10 13:09:12;;;;;;;;;;;;;;;34.35;28.45;98471.63;5043060;28;19917;-81
2022/06/10 13:11:47;;;;;;;;;;;;;;;34.60;28.70;98473.84;5042765;28;19917;-81
2022/06/10 13:14:19;;;;;;;;;;;;;;;34.37;28.68;98472.69;5046312;28;19923;-81